Time;durP1;ratioP1;P1;durP2;ratioP2;P2;SDS_P1;SDS_P2;PMS_P1;PMS_P2;Temp;Humidity;BMP_temperature;BMP_pressure;BME280_temperature;BME280_humidity;BME280_pressure;Samples;Min_cycle;Max_cycle;Signal;HPM_P1;HPM_P2
2022/11/10 00:00:54;;;;;;;33.00;22.77;;;17.60;86.10;;;17.92;49.74;98864.28;5063848;28;20040;-76
2022/11/10 00:03:19;;;;;;;35.72;22.40;;;17.60;86.10;;;17.99;49.35;98870.09;5033908;28;20089;-77
2022/11/10 00:05:46;;;;;;;37.22;22.65;;;17.60;86.00;;;18.00;49.61;98870.91;5019268;28;20090;-76
2022/11/10 00:08:12;;;;;;;37.03;22.08;;;17.60;86.40;;;18.06;49.61;98866.88;5048576;28;20048;-77
2022/11/10 00:10:55;;;;;;;39.58;24.83;;;17.70;86.60;;;18.03;49.68;98869.47;5049045;28;20103;-76
2022/11/10 00:13:24;;;;;;;33.30;22.40;;;17.60;86.50;;;17.92;49.73;98869.78;5041730;28;20041;-76
2022/11/10 00:18:35;;;;;;;36.40;22.75;;;17.60;86.30;;;17.92;49.43;98875.25;5038988;28;20044;-76
2022/11/10 00:21:09;;;;;;;37.03;23.40;;;17.60;86.20;;;17.87;50.03;98869.13;5039654;28;20036;-76
2022/11/10 00:23:35;;;;;;;38.38;23.13;;;17.50;86.40;;;17.97;49.78;98877.84;5045872;28;20041;-76
2022/11/10 00:26:01;;;;;;;32.10;21.05;;;17.50;86.80;;;18.02;49.73;98876.09;5032475;28;20123;-77
2022/11/10 00:28:30;;;;;;;33.40;22.80;;;17.50;86.90;;;17.92;49.61;98874.47;5031701;28;20147;-77
2022/11/10 00:30:56;;;;;;;35.50;22.83;;;17.50;86.50;;;17.91;49.55;98881.06;5047038;28;20040;-77
2022/11/10 00:33:22;;;;;;;33.58;21.13;;;17.60;86.40;;;17.88;49.62;98874.28;5038778;28;20091;-77
2022/11/10 00:35:48;;;;;;;36.15;23.00;;;17.50;86.20;;;17.82;49.72;98872.81;5040873;28;20123;-77
2022/11/10 00:38:14;;;;;;;36.22;22.73;;;17.50;86.50;;;17.90;49.87;98873.97;5058010;28;20056;-77
2022/11/10 00:40:40;;;;;;;33.92;21.25;;;17.50;87.00;;;17.95;49.77;98873.81;5032544;28;20373;-77
2022/11/10 00:43:07;;;;;;;40.05;23.58;;;17.50;86.90;;;17.96;49.68;98864.44;5045585;28;20043;-77
2022/11/10 00:45:33;;;;;;;40.45;22.65;;;17.50;86.80;;;17.91;49.47;98876.41;5028738;28;20049;-77
2022/11/10 00:47:59;;;;;;;33.35;20.60;;;17.50;86.30;;;17.83;49.53;98871.69;5016858;28;20040;-77
2022/11/10 00:50:25;;;;;;;34.60;21.88;;;17.50;86.30;;;17.87;49.58;98871.88;5036359;28;20102;-77
2022/11/10 00:52:53;;;;;;;38.80;22.17;;;17.50;86.30;;;17.90;49.60;98879.44;5021435;28;20049;-77
2022/11/10 00:55:20;;;;;;;28.80;21.15;;;17.50;86.30;;;17.93;49.84;98887.03;5037718;28;20052;-77
2022/11/10 00:57:46;;;;;;;35.65;21.58;;;17.50;86.80;;;17.96;49.79;98883.66;5028699;28;20185;-77
2022/11/10 01:00:12;;;;;;;32.40;20.00;;;17.50;86.80;;;17.86;49.58;98875.72;5033433;28;20049;-77
2022/11/10 01:02:38;;;;;;;33.13;20.23;;;17.50;86.60;;;17.88;49.45;98879.75;5019619;28;20380;-77
2022/11/10 01:05:05;;;;;;;31.85;21.38;;;17.50;86.30;;;17.83;49.50;98881.84;5045615;28;20488;-77
2022/11/10 01:07:32;;;;;;;34.13;20.63;;;17.50;86.30;;;17.81;49.57;98884.94;5049578;28;20066;-77
2022/11/10 01:09:58;;;;;;;28.60;20.25;;;17.50;86.20;;;17.87;49.83;98880.09;5064510;28;20062;-77
2022/11/10 01:12:29;;;;;;;32.72;21.58;;;17.50;86.60;;;17.92;49.72;98877.19;5052220;28;20430;-77
2022/11/10 01:14:55;;;;;;;30.33;20.38;;;17.50;86.90;;;17.92;49.73;98875.25;5018785;28;20476;-77
2022/11/10 01:17:21;;;;;;;33.08;20.33;;;17.40;86.90;;;17.93;49.51;98884.28;5050244;28;20053;-76
2022/11/10 01:19:47;;;;;;;33.08;21.95;;;17.50;86.80;;;17.93;49.40;98887.03;5049582;28;20036;-77
2022/11/10 01:22:13;;;;;;;29.13;19.92;;;17.40;86.50;;;17.89;49.36;98881.38;5033650;28;20099;-77
2022/11/10 01:24:39;;;;;;;31.05;21.20;;;17.40;86.50;;;17.98;49.43;98882.19;5029838;28;20041;-76
2022/11/10 01:27:05;;;;;;;35.42;21.85;;;17.50;86.50;;;18.02;49.57;98889.81;5032453;28;20485;-77
2022/11/10 01:29:31;;;;;;;30.52;19.98;;;17.40;86.80;;;18.04;49.54;98893.03;5014377;28;20044;-76
2022/11/10 01:31:57;;;;;;;24.95;17.98;;;17.40;87.00;;;17.99;49.68;98897.56;5033891;28;20165;-77
2022/11/10 01:34:24;;;;;;;32.28;20.08;;;17.40;86.90;;;18.04;49.36;98898.50;5051606;28;20044;-76
2022/11/10 01:36:50;;;;;;;31.83;21.25;;;17.40;86.80;;;18.04;49.35;98901.25;5013644;28;20043;-76
2022/11/10 01:39:16;;;;;;;29.10;20.15;;;17.40;86.80;;;18.12;49.09;98903.22;5026314;28;20048;-76
2022/11/10 01:41:42;;;;;;;33.05;21.63;;;17.40;86.70;;;18.05;49.25;98909.19;5055909;28;20044;-76
2022/11/10 01:44:15;;;;;;;33.03;21.17;;;17.40;86.80;;;18.08;49.44;98913.22;5026476;28;20042;-77
2022/11/10 01:46:41;;;;;;;28.77;20.33;;;17.40;88.10;;;18.14;49.46;98914.66;5050841;28;20097;-77
2022/11/10 01:49:08;;;;;;;31.75;20.23;;;17.40;87.40;;;18.17;49.15;98914.06;5039310;28;20040;-77
2022/11/10 01:51:53;;;;;;;35.47;20.38;;;17.40;87.20;;;18.15;49.34;98910.81;5050325;28;20040;-77
2022/11/10 01:54:45;;;;;;;28.60;19.77;;;17.40;87.10;;;18.18;49.13;98907.41;5051100;28;20075;-77
2022/11/10 01:57:12;;;;;;;28.75;18.85;;;17.40;87.20;;;18.22;49.16;98922.94;5035753;28;20164;-76
2022/11/10 01:59:45;;;;;;;29.02;19.85;;;17.40;87.30;;;18.27;49.08;98921.16;5052999;28;20138;-76
2022/11/10 02:02:35;;;;;;;29.65;19.30;;;17.40;87.40;;;18.31;49.14;98924.88;5054250;28;20491;-77
2022/11/10 02:05:01;;;;;;;25.15;18.23;;;17.50;87.50;;;18.32;49.10;98932.81;5041466;28;20040;-77
2022/11/10 02:07:27;;;;;;;36.95;21.08;;;17.50;87.40;;;18.36;48.88;98939.25;5002207;28;20089;-76
2022/11/10 02:09:53;;;;;;;35.72;20.30;;;17.50;87.20;;;18.36;49.01;98939.25;5038489;28;20032;-76
2022/11/10 02:12:35;;;;;;;26.70;18.85;;;17.50;87.20;;;18.38;48.89;98934.25;5050970;28;20055;-77
2022/11/10 02:15:03;;;;;;;29.20;19.27;;;17.50;87.20;;;18.23;49.54;98935.53;5050506;28;20033;-76
2022/11/10 02:17:29;;;;;;;33.03;19.15;;;17.50;87.50;;;18.35;49.32;98934.91;5063679;28;20087;-77
2022/11/10 02:20:06;;;;;;;31.38;20.38;;;17.40;87.40;;;18.41;49.09;98946.53;5039061;28;20074;-76
2022/11/10 02:22:32;;;;;;;30.83;18.98;;;17.40;87.40;;;18.41;49.10;98944.59;5050477;28;20729;-76
2022/11/10 02:24:58;;;;;;;26.13;18.20;;;17.50;87.50;;;18.45;48.96;98955.75;5048953;28;20048;-76
2022/11/10 02:27:24;;;;;;;26.48;17.33;;;17.50;87.50;;;18.54;48.78;98961.25;5032824;28;20837;-76
2022/11/10 02:29:51;;;;;;;27.55;18.35;;;17.50;87.50;;;18.56;48.83;98967.22;5042397;28;20032;-77
2022/11/10 02:32:17;;;;;;;26.90;18.85;;;17.60;87.50;;;18.53;49.03;98959.63;5045367;28;20583;-77
2022/11/10 02:34:42;;;;;;;25.30;17.35;;;17.60;87.60;;;18.57;48.83;98955.94;5046310;28;20044;-77
2022/11/10 02:37:09;;;;;;;27.10;17.92;;;17.50;87.50;;;18.52;49.08;98947.84;5021533;28;20037;-77
2022/11/10 02:39:36;;;;;;;30.58;19.67;;;17.60;87.60;;;18.60;48.85;98952.53;5013358;28;20072;-76
2022/11/10 02:42:03;;;;;;;26.17;16.80;;;17.60;87.60;;;18.70;48.64;98947.81;5030815;28;20040;-77
2022/11/10 02:44:29;;;;;;;25.83;16.65;;;17.60;87.60;;;18.62;48.86;98950.28;5063349;28;20396;-77
2022/11/10 02:46:55;;;;;;;26.52;17.92;;;17.70;87.40;;;18.70;48.72;98954.16;5026529;28;20049;-77
2022/11/10 02:49:22;;;;;;;27.40;18.48;;;17.70;87.70;;;18.69;48.66;98944.28;5032636;28;20056;-77
2022/11/10 02:51:48;;;;;;;23.90;17.65;;;17.70;87.70;;;18.75;48.84;98959.50;5046479;28;20435;-77
2022/11/10 02:54:14;;;;;;;22.15;15.85;;;17.70;87.70;;;18.79;48.33;98960.47;5067121;28;20040;-77
2022/11/10 02:56:40;;;;;;;23.70;16.73;;;17.80;87.50;;;18.66;48.97;98958.66;5050499;28;20040;-77
2022/11/10 02:59:06;;;;;;;24.70;17.13;;;17.70;87.40;;;18.79;48.65;98963.22;5020820;28;20463;-77
2022/11/10 03:01:32;;;;;;;24.88;16.02;;;17.70;87.50;;;18.80;48.61;98964.84;5036263;28;20048;-77
2022/11/10 03:03:59;;;;;;;23.85;16.70;;;17.70;87.60;;;18.84;48.83;98962.25;5038982;28;20037;-77
2022/11/10 03:06:25;;;;;;;24.23;17.15;;;17.70;87.70;;;18.87;48.74;98965.13;5051735;28;20090;-77
2022/11/10 03:08:51;;;;;;;30.27;16.60;;;17.80;87.80;;;18.85;48.56;98961.09;5008462;28;20563;-76
2022/11/10 03:11:17;;;;;;;24.65;16.90;;;17.80;87.60;;;18.85;48.72;98961.09;5041012;28;20060;-76
2022/11/10 03:13:43;;;;;;;24.45;17.50;;;17.80;87.60;;;18.84;48.81;98963.03;5020097;28;20044;-76
2022/11/10 03:16:10;;;;;;;25.63;16.10;;;17.90;87.40;;;18.85;48.69;98970.19;5051939;28;20048;-75
2022/11/10 03:18:36;;;;;;;22.35;16.70;;;17.80;87.40;;;18.86;48.71;98974.53;5020895;28;20048;-76
2022/11/10 03:21:02;;;;;;;22.75;15.85;;;17.80;87.70;;;18.94;48.52;98972.91;5032987;28;20474;-76
2022/11/10 03:23:28;;;;;;;23.73;15.50;;;17.90;87.90;;;18.86;48.95;98985.53;5057079;28;20040;-76
2022/11/10 03:25:54;;;;;;;21.40;15.73;;;17.80;87.80;;;18.93;48.57;98992.47;5050311;28;20075;-75
2022/11/10 03:28:20;;;;;;;23.88;16.02;;;17.80;87.80;;;18.91;48.69;98981.81;5033766;28;20067;-76
2022/11/10 03:30:46;;;;;;;25.85;17.38;;;17.90;87.60;;;18.92;48.53;98983.41;5031471;28;20495;-76
2022/11/10 03:33:13;;;;;;;21.25;15.02;;;17.90;87.60;;;18.91;48.74;98986.50;5025054;28;20060;-76
2022/11/10 03:35:39;;;;;;;22.15;14.95;;;17.90;87.50;;;18.97;48.71;98985.19;5046142;28;20045;-76
2022/11/10 03:38:05;;;;;;;23.75;15.80;;;17.90;87.90;;;18.97;48.75;98994.25;5023406;28;20085;-76
2022/11/10 03:40:31;;;;;;;19.25;13.88;;;17.90;87.90;;;18.98;48.53;98993.13;5054464;28;20468;-76
2022/11/10 03:42:57;;;;;;;23.40;15.63;;;18.00;87.80;;;18.95;48.60;98993.75;5037175;28;20040;-75
2022/11/10 03:45:23;;;;;;;23.60;15.95;;;18.00;87.50;;;18.92;48.81;98994.41;5056769;28;20466;-75
2022/11/10 03:47:49;;;;;;;23.17;15.27;;;18.00;87.60;;;18.99;48.67;98993.94;5033734;28;20110;-76
2022/11/10 03:50:15;;;;;;;21.75;14.93;;;17.90;87.40;;;18.91;48.74;99000.25;5037966;28;20072;-76
2022/11/10 03:52:43;;;;;;;22.02;14.15;;;18.00;87.50;;;18.99;48.55;99002.19;5046727;28;20124;-76
2022/11/10 03:55:15;;;;;;;18.73;15.20;;;18.10;87.30;;;18.96;48.42;99000.09;5052496;28;20049;-76
2022/11/10 03:57:41;;;;;;;21.00;14.73;;;18.10;87.00;;;18.97;48.40;98997.00;5048023;28;20044;-76
2022/11/10 04:00:09;;;;;;;21.25;14.32;;;18.10;86.90;;;18.96;48.25;99002.84;5060333;28;20047;-75
2022/11/10 04:02:36;;;;;;;19.10;13.07;;;18.00;86.90;;;19.01;48.32;99005.41;5035070;28;20106;-76
2022/11/10 04:10:35;;;;;;;19.65;15.63;;;18.00;87.50;;;18.98;48.33;99003.28;5029317;28;20120;-76
2022/11/10 04:15:46;;;;;;;19.05;13.57;;;18.00;87.10;;;18.94;48.09;99008.63;5049582;28;20044;-75
2022/11/10 04:18:19;;;;;;;20.67;13.32;;;18.00;86.70;;;18.98;48.28;99008.78;5064510;28;20925;-76
2022/11/10 04:20:52;;;;;;;17.45;12.93;;;18.00;86.80;;;19.00;48.34;99012.03;5042922;28;20040;-75
2022/11/10 04:23:27;;;;;;;16.77;13.00;;;18.00;86.90;;;19.00;48.25;99006.53;5040174;28;20488;-75
2022/11/10 04:28:39;;;;;;;18.58;14.07;;;18.10;86.90;;;19.04;48.09;99010.25;5065454;28;20036;-76
2022/11/10 04:31:05;;;;;;;18.13;13.90;;;18.10;86.70;;;18.95;48.15;98998.44;5020280;28;20064;-75
2022/11/10 04:33:31;;;;;;;17.42;13.68;;;18.00;86.60;;;18.98;48.10;99004.13;5053540;28;20037;-76
2022/11/10 04:35:57;;;;;;;20.20;13.95;;;18.00;86.60;;;19.01;48.24;99008.16;5068744;28;20086;-75
2022/11/10 04:38:27;;;;;;;19.85;14.20;;;18.00;86.80;;;19.05;48.21;98998.91;5047661;28;20112;-75
2022/11/10 04:40:53;;;;;;;17.02;12.23;;;18.00;86.90;;;19.04;48.13;99005.56;5049399;28;20044;-75
2022/11/10 04:43:19;;;;;;;19.52;14.10;;;18.10;86.70;;;19.08;48.03;99005.72;5015529;28;20043;-76
2022/11/10 04:45:45;;;;;;;17.35;12.82;;;18.10;86.50;;;19.01;48.04;99014.47;5029457;28;20037;-76
2022/11/10 04:48:11;;;;;;;16.65;11.73;;;18.10;86.50;;;19.03;47.77;99025.94;5032599;28;20048;-77
2022/11/10 04:50:38;;;;;;;19.42;13.13;;;18.10;86.40;;;19.01;47.98;99025.47;5015675;28;20040;-77
2022/11/10 04:53:03;;;;;;;16.55;12.73;;;18.10;86.20;;;19.02;47.99;99027.06;5032483;28;20090;-77
2022/11/10 04:55:30;;;;;;;15.32;12.52;;;18.10;86.50;;;19.05;48.05;99031.91;5051240;28;20387;-78
2022/11/10 04:57:56;;;;;;;20.45;13.35;;;18.10;86.90;;;19.05;48.02;99033.84;5039286;28;20094;-77
2022/11/10 05:00:22;;;;;;;16.00;11.15;;;18.10;86.40;;;19.04;47.95;99035.00;5029548;28;20411;-76
2022/11/10 05:02:48;;;;;;;17.00;12.50;;;18.10;86.30;;;19.03;47.89;99038.88;5027639;28;20047;-77
2022/11/10 05:05:14;;;;;;;17.30;11.70;;;18.10;86.20;;;19.08;47.73;99034.03;5052918;28;20040;-77
2022/11/10 05:07:40;;;;;;;16.25;12.07;;;18.10;86.00;;;19.03;47.70;99044.38;5035022;28;20095;-77
2022/11/10 05:10:07;;;;;;;18.92;12.68;;;18.10;86.00;;;19.03;47.90;99038.88;5042395;28;20429;-77
2022/11/10 05:12:33;;;;;;;17.23;11.82;;;18.10;86.30;;;19.04;48.05;99041.31;5047197;28;20440;-77
2022/11/10 05:14:59;;;;;;;14.88;11.52;;;18.10;86.30;;;19.07;47.75;99039.84;5044633;28;20081;-77
2022/11/10 05:17:25;;;;;;;15.15;11.68;;;18.20;86.10;;;19.01;47.63;99046.66;5069511;28;20045;-77
2022/11/10 05:19:51;;;;;;;15.32;11.63;;;18.20;86.00;;;19.03;47.78;99047.13;5039729;28;20076;-77
2022/11/10 05:22:17;;;;;;;15.13;11.40;;;18.10;85.90;;;19.03;47.46;99052.59;5051676;28;20410;-76
2022/11/10 05:24:43;;;;;;;19.83;12.63;;;18.10;85.80;;;19.02;47.79;99064.75;5053027;28;20456;-76
2022/11/10 05:27:09;;;;;;;12.77;10.60;;;18.10;86.10;;;19.06;47.72;99065.72;5053479;28;20054;-77
2022/11/10 05:29:35;;;;;;;16.52;11.70;;;18.20;86.20;;;19.08;47.63;99061.53;5042503;28;20051;-76
2022/11/10 05:32:01;;;;;;;17.10;11.00;;;18.10;86.00;;;19.06;47.53;99066.53;5052145;28;20040;-76
2022/11/10 05:34:27;;;;;;;14.60;11.00;;;18.20;86.00;;;19.02;47.45;99070.25;5052655;28;20368;-77
2022/11/10 05:36:53;;;;;;;17.80;10.77;;;18.30;85.80;;;19.06;47.36;99069.28;5055729;28;20048;-76
2022/11/10 05:39:19;;;;;;;14.85;10.63;;;18.30;85.40;;;19.02;47.45;99065.56;5040006;28;20112;-77
2022/11/10 05:41:45;;;;;;;13.88;10.50;;;18.30;85.40;;;19.06;47.51;99068.47;5065988;28;20400;-76
2022/11/10 05:44:11;;;;;;;13.32;10.50;;;18.20;85.60;;;19.03;47.75;99066.34;5049638;28;20037;-76
2022/11/10 05:46:41;;;;;;;14.38;10.02;;;18.30;85.80;;;19.07;47.52;99070.88;5041160;28;20036;-76
2022/11/10 05:49:07;;;;;;;15.50;10.77;;;18.30;85.60;;;19.06;47.41;99074.78;5037493;28;20041;-76
2022/11/10 05:51:34;;;;;;;14.35;9.57;;;18.20;85.40;;;19.07;47.39;99090.13;5050939;28;20060;-77
2022/11/10 05:53:59;;;;;;;16.20;11.63;;;18.30;85.50;;;19.09;47.46;99095.31;5034974;28;20036;-77
2022/11/10 05:56:25;;;;;;;18.02;11.73;;;18.30;85.50;;;19.04;47.37;99099.03;5021370;28;20041;-76
2022/11/10 05:58:53;;;;;;;14.68;10.85;;;18.20;85.40;;;19.06;47.37;99106.97;5070033;28;20484;-81
2022/11/10 06:01:19;;;;;;;14.68;9.70;;;18.20;86.20;;;19.08;47.36;99108.28;5048721;28;20127;-76
2022/11/10 06:03:45;;;;;;;12.40;10.35;;;18.30;85.50;;;19.09;47.38;99120.06;5048024;28;20044;-77
2022/11/10 06:06:11;;;;;;;13.88;10.57;;;18.30;85.50;;;19.10;47.57;99124.44;5036457;28;20353;-76
2022/11/10 06:08:37;;;;;;;13.50;9.80;;;18.30;85.50;;;19.09;47.59;99125.56;5030311;28;20048;-77
2022/11/10 06:11:03;;;;;;;16.45;11.20;;;18.40;85.60;;;19.09;47.52;99125.56;5048593;28;20029;-76
2022/11/10 06:13:30;;;;;;;14.57;10.02;;;18.40;85.60;;;19.11;47.34;99134.31;5069876;28;20036;-83
2022/11/10 06:15:55;;;;;;;14.40;9.93;;;18.30;85.40;;;19.08;47.52;99124.75;5007372;28;20458;-83
2022/11/10 06:18:22;;;;;;;13.73;11.05;;;18.30;85.40;;;19.13;47.52;99132.03;5037319;28;20142;-83
2022/11/10 06:20:48;;;;;;;15.57;10.13;;;18.40;85.50;;;19.09;47.73;99134.63;5054772;28;20041;-84
2022/11/10 06:23:14;;;;;;;12.80;10.23;;;18.40;85.60;;;19.11;47.67;99144.47;5021213;28;20041;-84
2022/11/10 06:25:40;;;;;;;14.48;9.85;;;18.40;85.80;;;19.09;47.78;99145.63;5022540;28;20040;-84
2022/11/10 06:28:07;;;;;;;14.02;10.43;;;18.30;85.60;;;19.14;47.70;99161.16;5042319;28;20518;-84
2022/11/10 06:30:34;;;;;;;12.52;9.85;;;18.30;85.50;;;19.15;47.49;99157.25;5025646;28;20079;-84
2022/11/10 06:33:01;;;;;;;12.20;9.02;;;18.40;85.60;;;19.14;47.64;99172.16;5050838;28;20040;-83
2022/11/10 06:35:27;;;;;;;11.90;8.85;;;18.40;85.50;;;19.12;47.59;99160.66;5016926;28;20145;-83
2022/11/10 06:38:08;;;;;;;14.07;10.30;;;18.40;85.60;;;19.15;47.61;99171.00;5037638;28;20033;-84
2022/11/10 06:40:34;;;;;;;13.60;9.38;;;18.40;85.60;;;19.14;47.79;99180.41;5023598;28;20041;-84
2022/11/10 06:43:01;;;;;;;12.82;8.57;;;18.40;85.60;;;19.14;47.79;99182.34;5035258;28;20044;-83
2022/11/10 06:45:27;;;;;;;11.90;9.10;;;18.40;85.60;;;19.16;47.57;99191.91;5057522;28;20105;-83
2022/11/10 06:48:05;;;;;;;11.73;9.10;;;18.40;85.50;;;19.13;47.64;99192.50;5066117;28;20071;-83
2022/11/10 06:50:31;;;;;;;11.75;8.88;;;18.40;85.50;;;19.15;47.76;99186.72;5046614;28;20453;-83
2022/11/10 06:52:58;;;;;;;11.45;8.55;;;18.50;85.50;;;19.19;47.69;99195.94;5046930;28;20490;-83
2022/11/10 06:55:24;;;;;;;11.70;9.40;;;18.50;85.60;;;19.20;47.75;99206.59;5045175;28;20063;-83
2022/11/10 06:57:50;;;;;;;14.20;9.77;;;18.50;85.60;;;19.16;47.92;99204.81;5031143;28;20036;-83
2022/11/10 07:00:17;;;;;;;10.88;8.77;;;18.50;85.50;;;19.15;47.66;99198.50;5052205;28;20068;-83
2022/11/10 07:02:43;;;;;;;15.63;9.77;;;18.50;85.50;;;19.15;47.70;99217.75;5029474;28;20041;-83
2022/11/10 07:05:09;;;;;;;14.10;9.35;;;18.50;85.50;;;19.14;47.75;99220.84;5069842;28;20051;-84
2022/11/10 07:07:35;;;;;;;13.18;9.98;;;18.50;85.50;;;19.16;47.70;99224.91;5017711;28;20029;-83
2022/11/10 07:10:01;;;;;;;13.23;9.93;;;18.60;85.50;;;19.20;47.58;99231.34;5048945;28;20045;-83
2022/11/10 07:12:27;;;;;;;11.68;8.52;;;18.60;85.40;;;19.20;47.81;99219.56;5049838;28;20057;-82
2022/11/10 07:14:53;;;;;;;14.60;9.68;;;18.60;85.40;;;19.20;47.56;99231.34;5046621;28;20040;-82
2022/11/10 07:17:19;;;;;;;11.90;9.05;;;18.60;85.40;;;19.17;47.62;99232.00;5029517;28;20047;-82
2022/11/10 07:19:45;;;;;;;10.40;8.50;;;18.60;85.40;;;19.19;47.63;99228.94;5054025;28;20040;-82
2022/11/10 07:22:11;;;;;;;14.05;8.65;;;18.60;85.20;;;19.20;47.58;99223.09;5062208;28;20040;-83
2022/11/10 07:24:37;;;;;;;10.48;8.52;;;18.60;85.10;;;19.22;47.68;99234.59;5045241;28;20063;-82
2022/11/10 07:27:03;;;;;;;9.52;8.30;;;18.60;85.20;;;19.22;47.65;99233.81;5048653;28;20125;-82
2022/11/10 07:29:29;;;;;;;11.93;9.25;;;18.60;85.40;;;19.24;47.69;99237.03;5046349;28;20048;-83
2022/11/10 07:31:55;;;;;;;13.40;9.40;;;18.70;85.40;;;19.22;47.54;99245.59;5037428;28;20041;-82
2022/11/10 07:34:21;;;;;;;12.60;8.45;;;18.60;85.20;;;19.23;47.66;99247.25;5036080;28;20048;-82
2022/11/10 07:36:47;;;;;;;12.68;9.32;;;18.60;85.20;;;19.24;47.62;99251.59;5042581;28;20507;-83
2022/11/10 07:39:13;;;;;;;10.75;8.18;;;18.60;85.20;;;19.21;47.86;99249.50;5056568;28;20048;-83
2022/11/10 07:41:40;;;;;;;11.10;8.52;;;18.70;85.20;;;19.24;47.58;99248.84;5047453;28;20041;-82
2022/11/10 07:44:06;;;;;;;10.60;8.07;;;18.60;85.20;;;19.29;47.66;99245.16;5063898;28;20043;-82
2022/11/10 07:46:34;;;;;;;12.20;9.80;;;18.70;85.40;;;19.28;47.61;99246.25;5048080;28;20455;-82
2022/11/10 07:49:00;;;;;;;12.38;9.05;;;18.70;85.10;;;19.25;47.75;99255.97;5025420;28;20041;-82
2022/11/10 07:51:26;;;;;;;11.43;8.55;;;18.70;85.00;;;19.29;47.67;99261.66;5050485;28;20080;-83
2022/11/10 07:53:53;;;;;;;11.90;8.32;;;18.70;85.10;;;19.31;47.54;99264.88;5034577;28;20044;-82
2022/11/10 07:56:19;;;;;;;12.38;8.70;;;18.70;85.20;;;19.31;47.46;99273.16;5044115;28;20051;-82
2022/11/10 07:58:47;;;;;;;10.23;8.63;;;18.70;85.20;;;19.33;47.46;99270.06;5032790;28;20033;-82
2022/11/10 08:01:13;;;;;;;8.68;7.47;;;18.70;85.10;;;19.30;47.73;99277.81;5034108;28;20036;-82
2022/11/10 08:03:39;;;;;;;11.07;8.23;;;18.70;85.20;;;19.35;47.64;99284.31;5014060;28;20463;-82
2022/11/10 08:06:05;;;;;;;12.80;8.65;;;18.80;85.10;;;19.32;47.51;99287.69;5032212;28;20082;-83
2022/11/10 08:08:31;;;;;;;9.90;7.32;;;18.80;85.10;;;19.33;47.44;99295.63;5037584;28;20090;-83
2022/11/10 08:10:58;;;;;;;11.43;8.48;;;18.80;85.10;;;19.32;47.54;99293.19;5049956;28;20115;-83
2022/11/10 08:13:24;;;;;;;11.05;8.13;;;18.80;85.20;;;19.35;47.49;99293.34;5035480;28;20048;-82
2022/11/10 08:15:50;;;;;;;11.55;7.82;;;18.80;85.10;;;19.37;47.55;99302.13;5023927;28;20090;-82
2022/11/10 08:18:20;;;;;;;11.13;8.43;;;18.90;85.20;;;19.36;47.62;99300.50;5047796;28;20048;-83
2022/11/10 08:20:47;;;;;;;10.20;8.30;;;18.90;85.00;;;19.39;47.54;99301.81;5049311;28;20094;-82
2022/11/10 08:23:13;;;;;;;9.32;8.20;;;19.00;85.10;;;19.39;47.29;99304.56;5047591;28;20318;-82
2022/11/10 08:25:40;;;;;;;10.10;7.88;;;18.90;84.80;;;19.40;47.59;99314.41;5029447;28;20037;-83
2022/11/10 08:28:14;;;;;;;11.02;8.43;;;19.00;84.90;;;19.41;47.46;99314.09;5033827;28;20120;-83
2022/11/10 08:30:41;;;;;;;10.98;7.93;;;18.90;84.80;;;19.41;47.49;99310.53;5028650;28;20455;-82
2022/11/10 08:33:09;;;;;;;9.73;7.70;;;19.00;84.90;;;19.41;47.48;99313.28;5032324;28;20123;-82
2022/11/10 08:35:37;;;;;;;10.00;8.40;;;19.00;84.90;;;19.40;47.49;99308.91;5007545;28;20068;-83
2022/11/10 08:38:11;;;;;;;10.88;7.80;;;19.00;84.80;;;19.43;47.41;99305.50;5028793;28;20503;-83
2022/11/10 08:40:38;;;;;;;9.68;8.23;;;19.00;84.70;;;19.45;47.31;99315.06;5049013;28;20047;-83
2022/11/10 08:43:06;;;;;;;9.45;7.50;;;19.00;84.60;;;19.45;47.19;99319.75;5028466;28;20044;-82
2022/11/10 08:45:34;;;;;;;11.85;7.68;;;19.00;84.50;;;19.46;47.36;99341.47;5042492;28;20040;-82
2022/11/10 08:48:04;;;;;;;10.35;7.75;;;19.10;84.60;;;19.45;47.53;99341.78;5035667;28;20048;-82
2022/11/10 08:50:30;;;;;;;9.55;7.10;;;19.10;84.60;;;19.44;47.54;99345.66;5022115;28;20476;-82
2022/11/10 08:52:56;;;;;;;9.40;8.05;;;19.10;84.70;;;19.47;47.31;99350.53;5055040;28;20043;-82
2022/11/10 08:55:22;;;;;;;9.57;7.75;;;19.00;84.60;;;19.43;47.52;99353.09;5026979;28;20522;-82
2022/11/10 08:57:48;;;;;;;10.35;7.82;;;19.00;85.40;;;19.45;47.52;99352.78;5037335;28;20036;-82
2022/11/10 09:00:16;;;;;;;9.43;7.85;;;19.00;84.50;;;19.43;47.46;99360.53;5033746;28;20048;-82
2022/11/10 09:02:42;;;;;;;10.82;7.72;;;19.00;84.70;;;19.45;47.58;99358.28;5051536;28;20068;-82
2022/11/10 09:05:08;;;;;;;11.15;8.07;;;19.00;84.70;;;19.46;47.56;99365.41;5037844;28;20041;-83
2022/11/10 09:07:43;;;;;;;8.52;7.20;;;19.10;84.80;;;19.44;47.40;99362.19;5051904;28;20044;-83
2022/11/10 09:10:09;;;;;;;12.20;8.50;;;19.00;84.70;;;19.44;47.68;99362.97;5018359;28;20090;-82
2022/11/10 09:12:36;;;;;;;10.23;7.22;;;19.00;84.60;;;19.48;47.41;99368.66;5040711;28;20049;-82
2022/11/10 09:15:02;;;;;;;11.45;7.32;;;19.10;84.60;;;19.51;47.25;99376.25;5034369;28;20093;-83
2022/11/10 09:17:30;;;;;;;11.15;7.65;;;19.10;84.50;;;19.48;47.41;99374.16;5038080;28;20044;-82
2022/11/10 09:19:56;;;;;;;9.02;7.38;;;19.10;84.60;;;19.56;47.27;99375.31;5034158;28;20745;-82
2022/11/10 09:22:22;;;;;;;10.80;7.55;;;19.10;84.60;;;19.54;47.30;99375.63;5022720;28;20485;-82
2022/11/10 09:24:48;;;;;;;8.13;7.03;;;19.10;84.60;;;19.55;47.18;99371.75;5022978;28;20037;-82
2022/11/10 09:27:14;;;;;;;9.18;7.90;;;19.10;84.40;;;19.56;47.37;99364.28;5049340;28;20114;-83
2022/11/10 09:29:40;;;;;;;9.98;8.07;;;19.20;84.40;;;19.55;47.38;99380.00;5011475;28;20044;-82
2022/11/10 09:32:06;;;;;;;10.82;7.53;;;19.10;84.40;;;19.55;47.08;99380.00;5064811;28;20134;-82
2022/11/10 09:34:33;;;;;;;8.68;7.30;;;19.10;84.40;;;19.59;47.26;99374.66;5037364;28;20041;-82
2022/11/10 09:36:59;;;;;;;10.30;7.65;;;19.20;84.60;;;19.57;47.37;99383.25;5016868;28;20040;-82
2022/11/10 09:39:25;;;;;;;11.07;8.20;;;19.20;84.40;;;19.59;47.32;99381.00;5016067;28;20044;-83
2022/11/10 09:41:51;;;;;;;9.75;8.02;;;19.30;84.50;;;19.61;47.23;99386.97;5048041;28;20070;-82
2022/11/10 09:44:38;;;;;;;9.80;7.30;;;19.30;84.30;;;19.62;47.03;99385.84;5054436;28;20043;-83
2022/11/10 09:47:15;;;;;;;10.15;7.90;;;19.30;84.30;;;19.62;47.28;99388.59;5037452;28;20063;-83
2022/11/10 09:49:46;;;;;;;8.85;7.15;;;19.30;84.30;;;19.63;47.36;99392.16;5050343;28;20041;-83
2022/11/10 09:52:15;;;;;;;9.73;7.18;;;19.30;84.40;;;19.65;47.12;99400.91;5027565;28;20126;-82
2022/11/10 09:54:52;;;;;;;10.25;7.10;;;19.20;84.40;;;19.66;47.08;99397.03;5047601;28;20487;-83
2022/11/10 09:57:24;;;;;;;7.45;6.68;;;19.30;84.60;;;19.63;47.09;99400.41;5032044;28;20040;-83
2022/11/10 09:59:50;;;;;;;9.32;6.65;;;19.30;84.50;;;19.64;47.25;99408.38;5021789;28;20093;-82
2022/11/10 10:03:01;;;;;;;8.88;7.28;;;19.30;85.00;;;19.65;47.18;99409.97;5019620;28;20221;-82
2022/11/10 10:05:45;;;;;;;9.27;7.55;;;19.30;84.30;;;19.66;47.21;99410.78;5005774;28;20088;-82
2022/11/10 10:08:20;;;;;;;9.32;7.55;;;19.30;84.20;;;19.66;47.32;99417.09;5065111;28;20037;-83
2022/11/10 10:11:20;;;;;;;9.13;7.25;;;19.40;84.30;;;19.67;47.30;99418.75;5015321;28;20438;-83
2022/11/10 10:14:23;;;;;;;9.65;7.35;;;19.40;84.50;;;19.65;47.33;99426.50;5033266;28;20056;-82
2022/11/10 10:17:10;;;;;;;8.52;6.82;;;19.40;84.30;;;19.67;47.27;99432.53;5065075;28;20036;-83
2022/11/10 10:19:51;;;;;;;7.75;5.82;;;19.40;84.10;;;19.67;47.26;99426.22;5063991;28;20484;-83
2022/11/10 10:22:33;;;;;;;8.25;7.07;;;19.40;83.90;;;19.66;47.16;99430.06;5032912;28;20165;-83
2022/11/10 10:25:02;;;;;;;9.00;7.40;;;19.40;84.00;;;19.64;47.37;99444.16;5065164;28;20042;-83
2022/11/10 10:27:28;;;;;;;8.40;6.50;;;19.40;84.20;;;19.64;47.27;99433.13;5038499;28;20045;-83